sensor_id;sensor_type;location;lat;lon;timestamp;P1;durP1;ratioP1;P2;durP2;ratioP2
40849;SDS011;26571;41.610;25.380;2023-05-16T00:00:06;6.95;;;6.32;;
40849;SDS011;26571;41.610;25.380;2023-05-16T00:02:35;8.20;;;7.03;;
40849;SDS011;26571;41.610;25.380;2023-05-16T00:05:03;7.65;;;7.15;;
40849;SDS011;26571;41.610;25.380;2023-05-16T00:07:30;7.40;;;6.80;;
40849;SDS011;26571;41.610;25.380;2023-05-16T00:09:56;9.00;;;8.30;;
40849;SDS011;26571;41.610;25.380;2023-05-16T00:12:22;8.05;;;7.45;;
40849;SDS011;26571;41.610;25.380;2023-05-16T00:14:48;10.82;;;8.07;;
40849;SDS011;26571;41.610;25.380;2023-05-16T00:17:14;8.77;;;7.38;;
40849;SDS011;26571;41.610;25.380;2023-05-16T00:19:43;8.40;;;7.70;;
40849;SDS011;26571;41.610;25.380;2023-05-16T00:22:11;8.63;;;7.88;;
40849;SDS011;26571;41.610;25.380;2023-05-16T00:24:36;9.07;;;8.10;;
40849;SDS011;26571;41.610;25.380;2023-05-16T00:27:02;8.60;;;7.90;;
40849;SDS011;26571;41.610;25.380;2023-05-16T00:29:29;8.60;;;7.75;;
40849;SDS011;26571;41.610;25.380;2023-05-16T00:31:55;7.50;;;7.00;;
40849;SDS011;26571;41.610;25.380;2023-05-16T00:34:21;7.97;;;7.25;;
40849;SDS011;26571;41.610;25.380;2023-05-16T00:36:48;8.07;;;7.32;;
40849;SDS011;26571;41.610;25.380;2023-05-16T00:39:14;9.32;;;8.52;;
40849;SDS011;26571;41.610;25.380;2023-05-16T00:41:39;8.45;;;7.75;;
40849;SDS011;26571;41.610;25.380;2023-05-16T00:44:05;9.43;;;7.97;;
40849;SDS011;26571;41.610;25.380;2023-05-16T00:46:30;8.13;;;7.53;;
40849;SDS011;26571;41.610;25.380;2023-05-16T00:48:56;8.40;;;7.65;;
40849;SDS011;26571;41.610;25.380;2023-05-16T00:51:22;9.20;;;8.40;;
40849;SDS011;26571;41.610;25.380;2023-05-16T00:53:48;8.25;;;7.55;;
40849;SDS011;26571;41.610;25.380;2023-05-16T00:56:13;8.10;;;7.50;;
40849;SDS011;26571;41.610;25.380;2023-05-16T00:58:39;8.90;;;8.20;;
40849;SDS011;26571;41.610;25.380;2023-05-16T01:01:05;9.15;;;8.45;;
40849;SDS011;26571;41.610;25.380;2023-05-16T01:03:32;9.38;;;8.57;;
40849;SDS011;26571;41.610;25.380;2023-05-16T01:05:57;7.70;;;7.05;;
40849;SDS011;26571;41.610;25.380;2023-05-16T01:08:23;8.55;;;7.95;;
40849;SDS011;26571;41.610;25.380;2023-05-16T01:10:52;8.57;;;7.78;;
40849;SDS011;26571;41.610;25.380;2023-05-16T01:13:30;7.90;;;7.40;;
40849;SDS011;26571;41.610;25.380;2023-05-16T01:16:09;9.75;;;7.57;;
40849;SDS011;26571;41.610;25.380;2023-05-16T01:18:41;9.43;;;8.43;;
40849;SDS011;26571;41.610;25.380;2023-05-16T01:24:33;7.32;;;6.82;;
40849;SDS011;26571;41.610;25.380;2023-05-16T01:27:18;8.68;;;7.88;;
40849;SDS011;26571;41.610;25.380;2023-05-16T01:29:45;7.75;;;7.00;;
40849;SDS011;26571;41.610;25.380;2023-05-16T01:32:10;9.40;;;8.60;;
40849;SDS011;26571;41.610;25.380;2023-05-16T01:34:38;9.88;;;9.07;;
40849;SDS011;26571;41.610;25.380;2023-05-16T01:39:36;9.50;;;8.68;;
40849;SDS011;26571;41.610;25.380;2023-05-16T01:42:32;12.32;;;8.02;;
40849;SDS011;26571;41.610;25.380;2023-05-16T01:47:43;7.57;;;7.07;;
40849;SDS011;26571;41.610;25.380;2023-05-16T01:50:15;8.13;;;7.25;;
40849;SDS011;26571;41.610;25.380;2023-05-16T01:53:01;16.73;;;9.57;;
40849;SDS011;26571;41.610;25.380;2023-05-16T01:58:06;10.45;;;9.55;;
40849;SDS011;26571;41.610;25.380;2023-05-16T02:00:32;18.15;;;12.50;;
40849;SDS011;26571;41.610;25.380;2023-05-16T02:02:58;9.55;;;8.65;;
40849;SDS011;26571;41.610;25.380;2023-05-16T02:05:23;11.02;;;8.13;;
40849;SDS011;26571;41.610;25.380;2023-05-16T02:07:49;9.10;;;8.48;;
40849;SDS011;26571;41.610;25.380;2023-05-16T02:10:14;8.50;;;7.78;;
40849;SDS011;26571;41.610;25.380;2023-05-16T02:12:40;9.85;;;9.15;;
40849;SDS011;26571;41.610;25.380;2023-05-16T02:15:05;10.00;;;9.13;;
40849;SDS011;26571;41.610;25.380;2023-05-16T02:17:31;12.25;;;9.18;;
40849;SDS011;26571;41.610;25.380;2023-05-16T02:19:57;8.93;;;8.32;;
40849;SDS011;26571;41.610;25.380;2023-05-16T02:22:22;9.90;;;9.10;;
40849;SDS011;26571;41.610;25.380;2023-05-16T02:24:47;8.48;;;7.68;;
40849;SDS011;26571;41.610;25.380;2023-05-16T02:27:13;9.00;;;8.30;;
40849;SDS011;26571;41.610;25.380;2023-05-16T02:29:38;8.38;;;7.78;;
40849;SDS011;26571;41.610;25.380;2023-05-16T02:32:04;8.35;;;7.65;;
40849;SDS011;26571;41.610;25.380;2023-05-16T02:34:30;7.45;;;6.97;;
40849;SDS011;26571;41.610;25.380;2023-05-16T02:36:55;7.72;;;7.22;;
40849;SDS011;26571;41.610;25.380;2023-05-16T02:39:20;8.57;;;7.88;;
40849;SDS011;26571;41.610;25.380;2023-05-16T02:41:46;8.88;;;8.00;;
40849;SDS011;26571;41.610;25.380;2023-05-16T02:44:11;9.20;;;8.30;;
40849;SDS011;26571;41.610;25.380;2023-05-16T02:46:36;8.95;;;8.07;;
40849;SDS011;26571;41.610;25.380;2023-05-16T02:49:02;9.48;;;8.63;;
40849;SDS011;26571;41.610;25.380;2023-05-16T02:51:27;9.40;;;8.50;;
40849;SDS011;26571;41.610;25.380;2023-05-16T02:53:53;8.35;;;7.47;;
40849;SDS011;26571;41.610;25.380;2023-05-16T02:56:21;8.65;;;8.10;;
40849;SDS011;26571;41.610;25.380;2023-05-16T02:58:47;7.38;;;6.88;;
40849;SDS011;26571;41.610;25.380;2023-05-16T03:01:14;8.15;;;7.53;;
40849;SDS011;26571;41.610;25.380;2023-05-16T03:03:40;9.60;;;8.80;;
40849;SDS011;26571;41.610;25.380;2023-05-16T03:06:06;10.23;;;9.52;;
40849;SDS011;26571;41.610;25.380;2023-05-16T03:08:32;8.18;;;7.68;;
40849;SDS011;26571;41.610;25.380;2023-05-16T03:10:57;9.35;;;8.68;;
40849;SDS011;26571;41.610;25.380;2023-05-16T03:13:23;9.70;;;8.77;;
40849;SDS011;26571;41.610;25.380;2023-05-16T03:15:49;10.70;;;9.70;;
40849;SDS011;26571;41.610;25.380;2023-05-16T03:18:14;9.00;;;8.30;;
40849;SDS011;26571;41.610;25.380;2023-05-16T03:20:40;9.35;;;8.60;;
40849;SDS011;26571;41.610;25.380;2023-05-16T03:23:05;9.40;;;8.70;;
40849;SDS011;26571;41.610;25.380;2023-05-16T03:25:35;8.65;;;7.95;;
40849;SDS011;26571;41.610;25.380;2023-05-16T03:28:01;9.75;;;8.68;;
40849;SDS011;26571;41.610;25.380;2023-05-16T03:30:27;9.30;;;8.50;;
40849;SDS011;26571;41.610;25.380;2023-05-16T03:32:53;7.50;;;6.90;;
40849;SDS011;26571;41.610;25.380;2023-05-16T03:35:19;8.52;;;7.32;;
40849;SDS011;26571;41.610;25.380;2023-05-16T03:37:45;6.07;;;5.68;;
40849;SDS011;26571;41.610;25.380;2023-05-16T03:40:10;6.28;;;5.80;;
40849;SDS011;26571;41.610;25.380;2023-05-16T03:42:36;7.05;;;6.45;;
40849;SDS011;26571;41.610;25.380;2023-05-16T03:45:03;7.18;;;6.53;;
40849;SDS011;26571;41.610;25.380;2023-05-16T03:47:29;6.88;;;6.30;;
40849;SDS011;26571;41.610;25.380;2023-05-16T03:49:55;7.47;;;6.88;;
40849;SDS011;26571;41.610;25.380;2023-05-16T03:52:21;6.68;;;6.07;;
40849;SDS011;26571;41.610;25.380;2023-05-16T03:54:47;6.32;;;5.93;;
40849;SDS011;26571;41.610;25.380;2023-05-16T03:57:12;8.18;;;7.53;;
40849;SDS011;26571;41.610;25.380;2023-05-16T03:59:38;8.15;;;7.50;;
40849;SDS011;26571;41.610;25.380;2023-05-16T04:02:03;7.57;;;6.53;;
40849;SDS011;26571;41.610;25.380;2023-05-16T04:04:29;7.65;;;6.85;;
40849;SDS011;26571;41.610;25.380;2023-05-16T04:06:54;7.55;;;6.93;;
40849;SDS011;26571;41.610;25.380;2023-05-16T04:09:20;7.60;;;6.65;;
40849;SDS011;26571;41.610;25.380;2023-05-16T04:11:45;6.93;;;6.53;;
40849;SDS011;26571;41.610;25.380;2023-05-16T04:14:10;6.82;;;6.35;;
40849;SDS011;26571;41.610;25.380;2023-05-16T04:16:36;5.65;;;5.28;;
40849;SDS011;26571;41.610;25.380;2023-05-16T04:19:01;7.68;;;7.03;;
40849;SDS011;26571;41.610;25.380;2023-05-16T04:21:27;7.35;;;7.03;;
40849;SDS011;26571;41.610;25.380;2023-05-16T04:23:53;8.13;;;7.60;;
40849;SDS011;26571;41.610;25.380;2023-05-16T04:26:18;7.60;;;7.10;;
40849;SDS011;26571;41.610;25.380;2023-05-16T04:28:46;8.52;;;8.02;;
40849;SDS011;26571;41.610;25.380;2023-05-16T04:31:12;7.28;;;6.78;;
40849;SDS011;26571;41.610;25.380;2023-05-16T04:33:38;7.07;;;6.70;;
40849;SDS011;26571;41.610;25.380;2023-05-16T04:36:04;6.85;;;6.32;;
40849;SDS011;26571;41.610;25.380;2023-05-16T04:38:30;6.90;;;6.45;;
40849;SDS011;26571;41.610;25.380;2023-05-16T04:40:56;6.32;;;5.93;;
40849;SDS011;26571;41.610;25.380;2023-05-16T04:43:21;6.30;;;5.90;;
40849;SDS011;26571;41.610;25.380;2023-05-16T04:45:47;5.78;;;5.20;;
40849;SDS011;26571;41.610;25.380;2023-05-16T04:48:12;6.28;;;5.78;;
40849;SDS011;26571;41.610;25.380;2023-05-16T04:50:39;6.45;;;5.95;;
40849;SDS011;26571;41.610;25.380;2023-05-16T04:53:05;7.05;;;6.50;;
40849;SDS011;26571;41.610;25.380;2023-05-16T04:55:30;6.75;;;6.15;;
40849;SDS011;26571;41.610;25.380;2023-05-16T04:57:55;5.82;;;5.53;;
40849;SDS011;26571;41.610;25.380;2023-05-16T05:00:21;6.35;;;5.75;;
40849;SDS011;26571;41.610;25.380;2023-05-16T05:02:47;6.55;;;6.15;;
40849;SDS011;26571;41.610;25.380;2023-05-16T05:05:12;6.80;;;6.40;;
40849;SDS011;26571;41.610;25.380;2023-05-16T05:07:38;7.43;;;6.82;;
40849;SDS011;26571;41.610;25.380;2023-05-16T05:10:04;7.05;;;6.18;;
40849;SDS011;26571;41.610;25.380;2023-05-16T05:12:30;8.07;;;7.57;;
40849;SDS011;26571;41.610;25.380;2023-05-16T05:14:56;7.05;;;6.40;;
40849;SDS011;26571;41.610;25.380;2023-05-16T05:17:21;8.27;;;7.55;;
40849;SDS011;26571;41.610;25.380;2023-05-16T05:19:47;8.18;;;7.57;;
40849;SDS011;26571;41.610;25.380;2023-05-16T05:22:13;8.15;;;7.65;;
40849;SDS011;26571;41.610;25.380;2023-05-16T05:24:39;8.20;;;7.50;;
40849;SDS011;26571;41.610;25.380;2023-05-16T05:27:04;8.02;;;7.45;;
40849;SDS011;26571;41.610;25.380;2023-05-16T05:29:30;8.23;;;7.63;;
40849;SDS011;26571;41.610;25.380;2023-05-16T05:31:55;9.32;;;8.73;;
40849;SDS011;26571;41.610;25.380;2023-05-16T05:34:21;10.27;;;9.48;;
40849;SDS011;26571;41.610;25.380;2023-05-16T05:36:46;10.63;;;9.55;;
40849;SDS011;26571;41.610;25.380;2023-05-16T05:39:12;10.85;;;9.77;;
40849;SDS011;26571;41.610;25.380;2023-05-16T05:41:37;10.52;;;9.73;;
40849;SDS011;26571;41.610;25.380;2023-05-16T05:44:03;10.13;;;9.32;;
40849;SDS011;26571;41.610;25.380;2023-05-16T05:46:28;12.05;;;10.13;;
40849;SDS011;26571;41.610;25.380;2023-05-16T05:48:54;9.05;;;8.35;;
40849;SDS011;26571;41.610;25.380;2023-05-16T05:51:19;9.38;;;8.48;;
40849;SDS011;26571;41.610;25.380;2023-05-16T05:53:45;9.75;;;8.82;;
40849;SDS011;26571;41.610;25.380;2023-05-16T05:56:11;10.38;;;9.40;;
40849;SDS011;26571;41.610;25.380;2023-05-16T05:58:37;10.48;;;9.57;;
40849;SDS011;26571;41.610;25.380;2023-05-16T06:01:03;9.48;;;8.63;;
40849;SDS011;26571;41.610;25.380;2023-05-16T06:03:28;41.40;;;37.08;;
40849;SDS011;26571;41.610;25.380;2023-05-16T06:05:54;11.00;;;9.95;;
40849;SDS011;26571;41.610;25.380;2023-05-16T06:08:19;14.82;;;13.40;;
40849;SDS011;26571;41.610;25.380;2023-05-16T06:10:45;12.43;;;11.18;;
40849;SDS011;26571;41.610;25.380;2023-05-16T06:13:11;19.88;;;13.55;;
40849;SDS011;26571;41.610;25.380;2023-05-16T06:15:36;24.83;;;20.27;;
40849;SDS011;26571;41.610;25.380;2023-05-16T06:18:02;29.40;;;24.92;;
40849;SDS011;26571;41.610;25.380;2023-05-16T06:20:27;30.83;;;25.70;;
40849;SDS011;26571;41.610;25.380;2023-05-16T06:22:52;24.35;;;21.90;;
40849;SDS011;26571;41.610;25.380;2023-05-16T06:25:18;23.98;;;21.48;;
40849;SDS011;26571;41.610;25.380;2023-05-16T06:27:44;21.90;;;19.60;;
40849;SDS011;26571;41.610;25.380;2023-05-16T06:30:09;19.73;;;17.67;;
40849;SDS011;26571;41.610;25.380;2023-05-16T06:32:35;19.13;;;17.23;;
40849;SDS011;26571;41.610;25.380;2023-05-16T06:35:01;21.90;;;19.17;;
40849;SDS011;26571;41.610;25.380;2023-05-16T06:37:26;20.95;;;18.42;;
40849;SDS011;26571;41.610;25.380;2023-05-16T06:39:52;19.33;;;17.60;;
40849;SDS011;26571;41.610;25.380;2023-05-16T06:42:17;23.80;;;19.77;;
40849;SDS011;26571;41.610;25.380;2023-05-16T06:44:44;21.13;;;19.10;;
40849;SDS011;26571;41.610;25.380;2023-05-16T06:47:10;20.40;;;18.27;;
40849;SDS011;26571;41.610;25.380;2023-05-16T06:49:36;18.35;;;16.45;;
40849;SDS011;26571;41.610;25.380;2023-05-16T06:52:01;16.10;;;14.80;;
40849;SDS011;26571;41.610;25.380;2023-05-16T06:54:27;15.98;;;14.40;;
40849;SDS011;26571;41.610;25.380;2023-05-16T06:56:52;15.93;;;14.40;;
40849;SDS011;26571;41.610;25.380;2023-05-16T06:59:18;16.73;;;15.02;;
40849;SDS011;26571;41.610;25.380;2023-05-16T07:01:43;14.88;;;13.27;;
40849;SDS011;26571;41.610;25.380;2023-05-16T07:04:08;14.02;;;12.63;;
40849;SDS011;26571;41.610;25.380;2023-05-16T07:06:34;11.52;;;10.43;;
40849;SDS011;26571;41.610;25.380;2023-05-16T07:08:59;10.57;;;9.07;;
40849;SDS011;26571;41.610;25.380;2023-05-16T07:11:26;12.25;;;10.98;;
40849;SDS011;26571;41.610;25.380;2023-05-16T07:13:51;17.75;;;11.25;;
40849;SDS011;26571;41.610;25.380;2023-05-16T07:16:17;14.15;;;12.43;;
40849;SDS011;26571;41.610;25.380;2023-05-16T07:18:42;15.25;;;12.57;;
40849;SDS011;26571;41.610;25.380;2023-05-16T07:21:08;13.13;;;10.65;;
40849;SDS011;26571;41.610;25.380;2023-05-16T07:23:33;9.48;;;8.77;;
40849;SDS011;26571;41.610;25.380;2023-05-16T07:25:59;8.63;;;7.93;;
40849;SDS011;26571;41.610;25.380;2023-05-16T07:28:24;10.60;;;9.45;;
40849;SDS011;26571;41.610;25.380;2023-05-16T07:30:50;10.75;;;8.43;;
40849;SDS011;26571;41.610;25.380;2023-05-16T07:33:15;9.32;;;6.30;;
40849;SDS011;26571;41.610;25.380;2023-05-16T07:35:41;10.07;;;6.45;;
40849;SDS011;26571;41.610;25.380;2023-05-16T07:38:06;7.18;;;6.50;;
40849;SDS011;26571;41.610;25.380;2023-05-16T07:40:31;13.23;;;5.90;;
40849;SDS011;26571;41.610;25.380;2023-05-16T07:42:57;8.05;;;6.40;;
40849;SDS011;26571;41.610;25.380;2023-05-16T07:45:23;6.78;;;6.25;;
40849;SDS011;26571;41.610;25.380;2023-05-16T07:47:48;6.88;;;6.18;;
40849;SDS011;26571;41.610;25.380;2023-05-16T07:50:14;6.97;;;6.47;;
40849;SDS011;26571;41.610;25.380;2023-05-16T07:52:39;6.03;;;5.63;;
40849;SDS011;26571;41.610;25.380;2023-05-16T07:55:05;6.45;;;5.95;;
40849;SDS011;26571;41.610;25.380;2023-05-16T07:57:31;7.60;;;6.65;;
40849;SDS011;26571;41.610;25.380;2023-05-16T07:59:56;7.13;;;5.78;;
40849;SDS011;26571;41.610;25.380;2023-05-16T08:02:22;5.65;;;5.15;;
40849;SDS011;26571;41.610;25.380;2023-05-16T08:04:54;6.00;;;5.60;;
40849;SDS011;26571;41.610;25.380;2023-05-16T08:07:21;5.93;;;5.35;;
40849;SDS011;26571;41.610;25.380;2023-05-16T08:09:46;15.15;;;6.55;;
40849;SDS011;26571;41.610;25.380;2023-05-16T08:12:11;4.88;;;4.47;;
40849;SDS011;26571;41.610;25.380;2023-05-16T08:14:37;5.57;;;4.43;;
40849;SDS011;26571;41.610;25.380;2023-05-16T08:17:03;6.28;;;5.43;;
40849;SDS011;26571;41.610;25.380;2023-05-16T08:19:29;7.07;;;6.50;;
40849;SDS011;26571;41.610;25.380;2023-05-16T08:21:54;6.10;;;5.45;;
40849;SDS011;26571;41.610;25.380;2023-05-16T08:24:20;6.32;;;5.80;;
40849;SDS011;26571;41.610;25.380;2023-05-16T08:26:45;5.60;;;5.10;;
40849;SDS011;26571;41.610;25.380;2023-05-16T08:29:11;5.23;;;4.83;;
40849;SDS011;26571;41.610;25.380;2023-05-16T08:31:36;7.03;;;4.63;;
40849;SDS011;26571;41.610;25.380;2023-05-16T08:34:02;9.57;;;8.33;;
40849;SDS011;26571;41.610;25.380;2023-05-16T08:36:31;5.95;;;5.55;;
40849;SDS011;26571;41.610;25.380;2023-05-16T08:38:59;5.78;;;5.28;;
40849;SDS011;26571;41.610;25.380;2023-05-16T08:41:24;5.85;;;5.40;;
40849;SDS011;26571;41.610;25.380;2023-05-16T08:43:50;5.70;;;4.82;;
40849;SDS011;26571;41.610;25.380;2023-05-16T08:46:17;5.90;;;5.30;;
40849;SDS011;26571;41.610;25.380;2023-05-16T08:48:46;5.85;;;5.13;;
40849;SDS011;26571;41.610;25.380;2023-05-16T08:51:15;10.10;;;5.65;;
40849;SDS011;26571;41.610;25.380;2023-05-16T08:53:44;5.32;;;4.93;;
40849;SDS011;26571;41.610;25.380;2023-05-16T08:56:14;6.00;;;5.40;;
40849;SDS011;26571;41.610;25.380;2023-05-16T08:58:41;6.13;;;5.05;;
40849;SDS011;26571;41.610;25.380;2023-05-16T09:01:06;6.07;;;5.47;;
40849;SDS011;26571;41.610;25.380;2023-05-16T09:03:37;6.93;;;4.75;;
40849;SDS011;26571;41.610;25.380;2023-05-16T09:06:05;5.55;;;5.00;;
40849;SDS011;26571;41.610;25.380;2023-05-16T09:08:31;8.70;;;6.03;;
40849;SDS011;26571;41.610;25.380;2023-05-16T09:10:57;6.80;;;5.93;;
40849;SDS011;26571;41.610;25.380;2023-05-16T09:13:23;5.35;;;4.85;;
40849;SDS011;26571;41.610;25.380;2023-05-16T09:18:44;12.15;;;5.93;;
40849;SDS011;26571;41.610;25.380;2023-05-16T09:21:20;8.23;;;6.60;;
40849;SDS011;26571;41.610;25.380;2023-05-16T09:23:49;8.00;;;7.20;;
40849;SDS011;26571;41.610;25.380;2023-05-16T09:26:15;7.28;;;6.78;;
40849;SDS011;26571;41.610;25.380;2023-05-16T09:28:41;11.10;;;7.25;;
40849;SDS011;26571;41.610;25.380;2023-05-16T09:33:45;8.52;;;5.63;;
40849;SDS011;26571;41.610;25.380;2023-05-16T09:36:11;7.68;;;6.18;;
40849;SDS011;26571;41.610;25.380;2023-05-16T09:38:38;7.80;;;7.10;;
40849;SDS011;26571;41.610;25.380;2023-05-16T09:41:03;7.20;;;6.55;;
40849;SDS011;26571;41.610;25.380;2023-05-16T09:43:29;8.55;;;7.82;;
40849;SDS011;26571;41.610;25.380;2023-05-16T09:45:55;9.00;;;8.10;;
40849;SDS011;26571;41.610;25.380;2023-05-16T09:48:23;10.07;;;9.20;;
40849;SDS011;26571;41.610;25.380;2023-05-16T09:50:52;9.32;;;8.57;;
40849;SDS011;26571;41.610;25.380;2023-05-16T09:53:31;9.88;;;8.82;;
40849;SDS011;26571;41.610;25.380;2023-05-16T09:56:04;9.23;;;7.78;;
40849;SDS011;26571;41.610;25.380;2023-05-16T09:58:33;9.38;;;8.68;;
40849;SDS011;26571;41.610;25.380;2023-05-16T10:01:00;7.60;;;6.90;;
40849;SDS011;26571;41.610;25.380;2023-05-16T10:03:26;8.80;;;5.97;;
40849;SDS011;26571;41.610;25.380;2023-05-16T10:05:52;7.55;;;5.50;;
40849;SDS011;26571;41.610;25.380;2023-05-16T10:08:22;7.72;;;5.18;;
40849;SDS011;26571;41.610;25.380;2023-05-16T10:10:50;5.30;;;4.80;;
40849;SDS011;26571;41.610;25.380;2023-05-16T10:13:18;5.75;;;5.35;;
40849;SDS011;26571;41.610;25.380;2023-05-16T10:15:55;9.27;;;5.32;;
40849;SDS011;26571;41.610;25.380;2023-05-16T10:18:23;6.38;;;5.05;;
40849;SDS011;26571;41.610;25.380;2023-05-16T10:20:54;5.82;;;5.40;;
40849;SDS011;26571;41.610;25.380;2023-05-16T10:23:21;5.90;;;4.85;;
40849;SDS011;26571;41.610;25.380;2023-05-16T10:25:50;7.47;;;5.30;;
40849;SDS011;26571;41.610;25.380;2023-05-16T10:28:16;7.93;;;6.35;;
40849;SDS011;26571;41.610;25.380;2023-05-16T10:30:43;6.38;;;5.18;;
40849;SDS011;26571;41.610;25.380;2023-05-16T10:33:11;6.45;;;5.65;;
40849;SDS011;26571;41.610;25.380;2023-05-16T10:35:38;7.28;;;4.90;;
40849;SDS011;26571;41.610;25.380;2023-05-16T10:38:04;5.03;;;4.53;;
40849;SDS011;26571;41.610;25.380;2023-05-16T10:40:31;7.97;;;4.63;;
40849;SDS011;26571;41.610;25.380;2023-05-16T10:42:59;4.82;;;4.50;;
40849;SDS011;26571;41.610;25.380;2023-05-16T10:45:25;6.53;;;5.03;;
40849;SDS011;26571;41.610;25.380;2023-05-16T10:50:29;6.77;;;4.67;;
40849;SDS011;26571;41.610;25.380;2023-05-16T11:09:06;7.10;;;5.43;;
40849;SDS011;26571;41.610;25.380;2023-05-16T11:16:52;4.93;;;4.43;;
40849;SDS011;26571;41.610;25.380;2023-05-16T11:22:32;6.28;;;4.88;;
40849;SDS011;26571;41.610;25.380;2023-05-16T11:25:02;6.63;;;4.30;;
40849;SDS011;26571;41.610;25.380;2023-05-16T11:32:34;7.00;;;4.53;;
40849;SDS011;26571;41.610;25.380;2023-05-16T11:35:00;4.72;;;4.15;;
40849;SDS011;26571;41.610;25.380;2023-05-16T11:39:57;3.92;;;3.58;;
40849;SDS011;26571;41.610;25.380;2023-05-16T11:42:24;6.00;;;3.45;;
40849;SDS011;26571;41.610;25.380;2023-05-16T11:45:02;4.40;;;4.00;;
40849;SDS011;26571;41.610;25.380;2023-05-16T11:47:38;9.82;;;3.78;;
40849;SDS011;26571;41.610;25.380;2023-05-16T11:50:11;4.68;;;4.20;;
40849;SDS011;26571;41.610;25.380;2023-05-16T11:52:38;9.38;;;3.75;;
40849;SDS011;26571;41.610;25.380;2023-05-16T11:55:07;5.80;;;4.85;;
40849;SDS011;26571;41.610;25.380;2023-05-16T11:57:35;9.90;;;4.85;;
40849;SDS011;26571;41.610;25.380;2023-05-16T12:00:13;7.88;;;3.90;;
40849;SDS011;26571;41.610;25.380;2023-05-16T12:02:43;3.80;;;3.50;;
40849;SDS011;26571;41.610;25.380;2023-05-16T12:05:11;6.82;;;4.78;;
40849;SDS011;26571;41.610;25.380;2023-05-16T12:07:37;4.43;;;4.10;;
40849;SDS011;26571;41.610;25.380;2023-05-16T12:12:33;5.90;;;3.83;;
40849;SDS011;26571;41.610;25.380;2023-05-16T12:15:00;6.05;;;4.03;;
40849;SDS011;26571;41.610;25.380;2023-05-16T12:17:30;7.95;;;4.30;;
40849;SDS011;26571;41.610;25.380;2023-05-16T12:19:57;5.20;;;3.60;;
40849;SDS011;26571;41.610;25.380;2023-05-16T12:22:23;4.40;;;3.87;;
40849;SDS011;26571;41.610;25.380;2023-05-16T12:24:49;6.00;;;3.72;;
40849;SDS011;26571;41.610;25.380;2023-05-16T12:27:21;7.03;;;3.27;;
40849;SDS011;26571;41.610;25.380;2023-05-16T12:29:48;6.13;;;3.65;;
40849;SDS011;26571;41.610;25.380;2023-05-16T12:32:17;6.87;;;4.40;;
40849;SDS011;26571;41.610;25.380;2023-05-16T12:34:50;4.53;;;4.15;;
40849;SDS011;26571;41.610;25.380;2023-05-16T12:37:16;6.07;;;3.75;;
40849;SDS011;26571;41.610;25.380;2023-05-16T12:39:41;4.07;;;3.70;;
40849;SDS011;26571;41.610;25.380;2023-05-16T12:42:07;4.13;;;3.07;;
40849;SDS011;26571;41.610;25.380;2023-05-16T12:44:33;14.88;;;4.78;;
40849;SDS011;26571;41.610;25.380;2023-05-16T12:47:00;5.18;;;3.97;;
40849;SDS011;26571;41.610;25.380;2023-05-16T12:49:26;5.20;;;3.78;;
40849;SDS011;26571;41.610;25.380;2023-05-16T12:51:53;5.13;;;3.35;;
40849;SDS011;26571;41.610;25.380;2023-05-16T12:54:21;3.63;;;3.17;;
40849;SDS011;26571;41.610;25.380;2023-05-16T12:56:47;6.07;;;3.43;;
40849;SDS011;26571;41.610;25.380;2023-05-16T12:59:13;11.20;;;4.28;;
40849;SDS011;26571;41.610;25.380;2023-05-16T13:01:39;5.57;;;3.27;;
40849;SDS011;26571;41.610;25.380;2023-05-16T13:04:05;5.07;;;3.95;;
40849;SDS011;26571;41.610;25.380;2023-05-16T13:06:32;4.75;;;3.45;;
40849;SDS011;26571;41.610;25.380;2023-05-16T13:08:58;5.10;;;4.03;;
40849;SDS011;26571;41.610;25.380;2023-05-16T13:11:23;4.03;;;3.30;;
40849;SDS011;26571;41.610;25.380;2023-05-16T13:13:50;3.83;;;3.30;;
40849;SDS011;26571;41.610;25.380;2023-05-16T13:16:15;13.10;;;4.50;;
40849;SDS011;26571;41.610;25.380;2023-05-16T13:18:41;4.83;;;3.13;;
40849;SDS011;26571;41.610;25.380;2023-05-16T13:21:06;8.13;;;3.00;;
40849;SDS011;26571;41.610;25.380;2023-05-16T13:23:32;6.47;;;3.73;;
40849;SDS011;26571;41.610;25.380;2023-05-16T13:25:57;5.33;;;4.73;;
40849;SDS011;26571;41.610;25.380;2023-05-16T13:28:23;4.77;;;3.73;;
40849;SDS011;26571;41.610;25.380;2023-05-16T13:30:49;3.37;;;2.80;;
40849;SDS011;26571;41.610;25.380;2023-05-16T13:33:15;6.97;;;4.43;;
40849;SDS011;26571;41.610;25.380;2023-05-16T13:35:41;7.07;;;3.37;;
40849;SDS011;26571;41.610;25.380;2023-05-16T13:38:07;5.35;;;3.15;;
40849;SDS011;26571;41.610;25.380;2023-05-16T13:40:32;7.27;;;2.70;;
40849;SDS011;26571;41.610;25.380;2023-05-16T13:42:58;6.17;;;2.80;;
40849;SDS011;26571;41.610;25.380;2023-05-16T13:45:25;3.80;;;3.20;;
40849;SDS011;26571;41.610;25.380;2023-05-16T13:47:51;7.07;;;3.00;;
40849;SDS011;26571;41.610;25.380;2023-05-16T13:50:16;8.47;;;3.43;;
40849;SDS011;26571;41.610;25.380;2023-05-16T13:52:42;4.73;;;2.77;;
40849;SDS011;26571;41.610;25.380;2023-05-16T13:55:08;5.93;;;4.13;;
40849;SDS011;26571;41.610;25.380;2023-05-16T13:57:34;7.30;;;3.10;;
40849;SDS011;26571;41.610;25.380;2023-05-16T14:00:00;4.90;;;3.33;;
40849;SDS011;26571;41.610;25.380;2023-05-16T14:02:26;9.10;;;2.87;;
40849;SDS011;26571;41.610;25.380;2023-05-16T14:04:51;7.60;;;3.60;;
40849;SDS011;26571;41.610;25.380;2023-05-16T14:07:17;6.47;;;3.73;;
40849;SDS011;26571;41.610;25.380;2023-05-16T14:09:43;3.70;;;2.73;;
40849;SDS011;26571;41.610;25.380;2023-05-16T14:12:09;6.00;;;4.40;;
40849;SDS011;26571;41.610;25.380;2023-05-16T14:14:34;2.83;;;2.50;;
40849;SDS011;26571;41.610;25.380;2023-05-16T14:17:00;6.40;;;2.73;;
40849;SDS011;26571;41.610;25.380;2023-05-16T14:19:27;6.03;;;4.38;;
40849;SDS011;26571;41.610;25.380;2023-05-16T14:21:53;2.93;;;2.50;;
40849;SDS011;26571;41.610;25.380;2023-05-16T14:24:19;3.87;;;2.40;;
40849;SDS011;26571;41.610;25.380;2023-05-16T14:26:45;5.27;;;3.47;;
40849;SDS011;26571;41.610;25.380;2023-05-16T14:29:10;6.37;;;3.10;;
40849;SDS011;26571;41.610;25.380;2023-05-16T14:31:37;10.77;;;4.35;;
40849;SDS011;26571;41.610;25.380;2023-05-16T14:34:02;6.90;;;3.43;;
40849;SDS011;26571;41.610;25.380;2023-05-16T14:36:28;3.50;;;3.20;;
40849;SDS011;26571;41.610;25.380;2023-05-16T14:38:53;5.70;;;3.20;;
40849;SDS011;26571;41.610;25.380;2023-05-16T14:41:19;3.47;;;3.17;;
40849;SDS011;26571;41.610;25.380;2023-05-16T14:43:45;7.07;;;3.07;;
40849;SDS011;26571;41.610;25.380;2023-05-16T14:46:10;6.47;;;2.70;;
40849;SDS011;26571;41.610;25.380;2023-05-16T14:48:36;5.67;;;3.53;;
40849;SDS011;26571;41.610;25.380;2023-05-16T14:51:01;7.70;;;3.27;;
40849;SDS011;26571;41.610;25.380;2023-05-16T14:53:28;4.30;;;3.90;;
40849;SDS011;26571;41.610;25.380;2023-05-16T14:55:54;22.80;;;7.83;;
40849;SDS011;26571;41.610;25.380;2023-05-16T14:58:19;8.07;;;6.57;;
40849;SDS011;26571;41.610;25.380;2023-05-16T15:00:45;8.87;;;5.50;;
40849;SDS011;26571;41.610;25.380;2023-05-16T15:03:10;4.40;;;4.00;;
40849;SDS011;26571;41.610;25.380;2023-05-16T15:05:36;4.70;;;2.90;;
40849;SDS011;26571;41.610;25.380;2023-05-16T15:08:01;5.97;;;3.60;;
40849;SDS011;26571;41.610;25.380;2023-05-16T15:10:27;8.93;;;4.10;;
40849;SDS011;26571;41.610;25.380;2023-05-16T15:12:52;3.37;;;3.03;;
40849;SDS011;26571;41.610;25.380;2023-05-16T15:15:18;4.03;;;3.20;;
40849;SDS011;26571;41.610;25.380;2023-05-16T15:17:43;4.40;;;2.93;;
40849;SDS011;26571;41.610;25.380;2023-05-16T15:20:09;7.10;;;4.57;;